Lanzarote, Canary Islands

2:22 PM WEST on July 28, 2015 (GMT +0100)
Lanzarote | | Change Station
CLOSE
Current Station
Airport
Location: Lanzarote,
Elevation: 69 ft
Nearby Weather Stations

Elev 69 ft 28.95 °N, 13.60 °W | Updated 22 minutes ago

Partly Cloudy
Partly Cloudy
84 °F
Feels Like 87 °F
N
18
Wind Variable Wind from North

Today
High -- | Low -- °F
--% Chance of Precip.
Yesterday
High -- | Low -- °F
Precip. -- in
7:12 AM 8:48 PM
Waxing Gibbous, 89% visible
Pressure 29.98 in
Visibility 6.2 miles
Clouds Few 3000 ft
Heat Index 87 °F
Dew Point 66 °F
Humidity 55%
Rainfall 0.00 in
Snow Depth Not available.
UV 13 out of 12
Pollen Not available.
Air Quality Not available.
Flu Activity Not available.
METAR GCRR 281300Z 36016KT 9999 FEW030 29/19 Q1015

More Conditions Fewer Conditions

Pressure 29.98 in
Visibility 6.2 miles
Clouds Few 3000 ft
Heat Index 87 °F
Dew Point 66 °F
Humidity 55%
Rainfall 0.00 in
Snow Depth Not available.
UV 13 out of 12
Pollen Not available.
Air Quality Not available.
Flu Activity Not available.
METAR GCRR 281300Z 36016KT 9999 FEW030 29/19 Q1015

More Conditions Fewer Conditions

10-Day Weather Forecast

×

Almanac

Astronomy

Jul. 28, 2015 Rise Set
Actual Time
Civil Twilight
Nautical Twilight
Astronomical Twilight
Moon
Length of Visible Light
Length of Day
Tomorrow will be .
, % of the Moon is Illuminated

Today's Extremes

Country Highs Country Lows

Community

WunderPhotos

Upload Photos

1,841,832 photos uploaded!

WunderBlogs® & News

Nearby

Air Quality

  Air Quality AQ Index Pollutant
Not available.

Snow Depth

Station Depth Elevation

Earthquake Activity

City Distance Mag. Time & Date
Minimum magnitude displayed is 2.5.

Coastal Water Temperatures

Place Temperature

Stations

Nearby Weather Stations

Station Location Temp. Windchill Dew Point Humidity Wind Precip. Elev Updated Type